sensor_id;sensor_type;location;lat;lon;timestamp;pressure;altitude;pressure_sealevel;temperature;humidity
5522;BME280;2783;48.730;8.006;2022-12-18T00:01:32;101339.91;;;-3.28;97.38
5522;BME280;2783;48.730;8.006;2022-12-18T00:03:59;101339.16;;;-3.25;97.98
5522;BME280;2783;48.730;8.006;2022-12-18T00:06:26;101339.22;;;-3.24;97.45
5522;BME280;2783;48.730;8.006;2022-12-18T00:08:52;101322.94;;;-3.39;97.04
5522;BME280;2783;48.730;8.006;2022-12-18T00:11:21;101327.91;;;-3.45;97.44
5522;BME280;2783;48.730;8.006;2022-12-18T00:13:47;101319.25;;;-3.44;97.67
5522;BME280;2783;48.730;8.006;2022-12-18T00:16:16;101332.75;;;-3.33;97.83
5522;BME280;2783;48.730;8.006;2022-12-18T00:18:43;101342.66;;;-3.25;97.48
5522;BME280;2783;48.730;8.006;2022-12-18T00:21:10;101324.22;;;-3.29;98.19
5522;BME280;2783;48.730;8.006;2022-12-18T00:23:37;101339.28;;;-3.22;97.18
5522;BME280;2783;48.730;8.006;2022-12-18T00:26:06;101341.56;;;-3.30;98.15
5522;BME280;2783;48.730;8.006;2022-12-18T00:28:32;101345.81;;;-3.32;97.99
5522;BME280;2783;48.730;8.006;2022-12-18T00:31:06;101344.72;;;-3.37;98.08
5522;BME280;2783;48.730;8.006;2022-12-18T00:33:32;101340.34;;;-3.38;97.55
5522;BME280;2783;48.730;8.006;2022-12-18T00:36:06;101333.03;;;-3.46;98.49
5522;BME280;2783;48.730;8.006;2022-12-18T00:38:32;101338.22;;;-3.46;98.08
5522;BME280;2783;48.730;8.006;2022-12-18T00:40:58;101344.88;;;-3.53;97.99
5522;BME280;2783;48.730;8.006;2022-12-18T00:43:23;101346.69;;;-3.50;98.84
5522;BME280;2783;48.730;8.006;2022-12-18T00:45:49;101333.03;;;-3.46;98.88
5522;BME280;2783;48.730;8.006;2022-12-18T00:48:15;101331.88;;;-3.53;98.07
5522;BME280;2783;48.730;8.006;2022-12-18T00:50:40;101327.00;;;-3.45;98.12
5522;BME280;2783;48.730;8.006;2022-12-18T00:53:06;101309.28;;;-3.54;98.79
5522;BME280;2783;48.730;8.006;2022-12-18T00:55:31;101322.22;;;-3.55;99.04
5522;BME280;2783;48.730;8.006;2022-12-18T00:57:57;101312.72;;;-3.55;99.15
5522;BME280;2783;48.730;8.006;2022-12-18T01:00:22;101320.50;;;-3.55;99.39
5522;BME280;2783;48.730;8.006;2022-12-18T01:02:48;101327.34;;;-3.57;98.24
5522;BME280;2783;48.730;8.006;2022-12-18T01:05:14;101339.66;;;-3.53;98.38
5522;BME280;2783;48.730;8.006;2022-12-18T01:07:39;101325.44;;;-3.61;98.54
5522;BME280;2783;48.730;8.006;2022-12-18T01:10:07;101342.34;;;-3.51;98.81
5522;BME280;2783;48.730;8.006;2022-12-18T01:12:33;101325.44;;;-3.61;98.18
5522;BME280;2783;48.730;8.006;2022-12-18T01:14:59;101346.91;;;-3.46;98.79
5522;BME280;2783;48.730;8.006;2022-12-18T01:17:24;101339.25;;;-3.62;98.12
5522;BME280;2783;48.730;8.006;2022-12-18T01:19:50;101328.06;;;-3.61;98.43
5522;BME280;2783;48.730;8.006;2022-12-18T01:22:15;101326.69;;;-3.53;99.74
5522;BME280;2783;48.730;8.006;2022-12-18T01:24:41;101336.25;;;-3.52;99.38
5522;BME280;2783;48.730;8.006;2022-12-18T01:27:06;101346.63;;;-3.52;99.29
5522;BME280;2783;48.730;8.006;2022-12-18T01:29:31;101356.38;;;-3.48;98.36
5522;BME280;2783;48.730;8.006;2022-12-18T01:31:57;101366.97;;;-3.43;99.26
5522;BME280;2783;48.730;8.006;2022-12-18T01:34:23;101367.88;;;-3.43;98.62
5522;BME280;2783;48.730;8.006;2022-12-18T01:36:49;101367.88;;;-3.43;98.08
5522;BME280;2783;48.730;8.006;2022-12-18T01:39:17;101357.94;;;-3.51;97.70
5522;BME280;2783;48.730;8.006;2022-12-18T01:41:43;101350.81;;;-3.55;98.40
5522;BME280;2783;48.730;8.006;2022-12-18T01:50:33;101349.38;;;-3.49;97.97
5522;BME280;2783;48.730;8.006;2022-12-18T01:53:06;101345.53;;;-3.57;99.06
5522;BME280;2783;48.730;8.006;2022-12-18T01:55:38;101344.56;;;-3.59;98.99
5522;BME280;2783;48.730;8.006;2022-12-18T01:58:05;101371.47;;;-3.39;98.58
5522;BME280;2783;48.730;8.006;2022-12-18T02:00:37;101337.75;;;-3.57;98.95
5522;BME280;2783;48.730;8.006;2022-12-18T02:03:03;101346.78;;;-3.49;97.77
5522;BME280;2783;48.730;8.006;2022-12-18T02:11:09;101361.16;;;-3.38;97.51
5522;BME280;2783;48.730;8.006;2022-12-18T02:13:55;101362.03;;;-3.37;97.54
5522;BME280;2783;48.730;8.006;2022-12-18T02:25:33;101368.00;;;-3.40;98.57
5522;BME280;2783;48.730;8.006;2022-12-18T02:28:06;101369.63;;;-3.42;98.61
5522;BME280;2783;48.730;8.006;2022-12-18T02:30:35;101351.56;;;-3.58;97.96
5522;BME280;2783;48.730;8.006;2022-12-18T02:33:04;101364.44;;;-3.42;97.32
5522;BME280;2783;48.730;8.006;2022-12-18T02:35:33;101363.81;;;-3.36;98.05
5522;BME280;2783;48.730;8.006;2022-12-18T02:37:59;101364.16;;;-3.48;97.08
5522;BME280;2783;48.730;8.006;2022-12-18T02:40:27;101358.97;;;-3.48;97.81
5522;BME280;2783;48.730;8.006;2022-12-18T02:42:53;101344.56;;;-3.59;97.02
5522;BME280;2783;48.730;8.006;2022-12-18T02:45:19;101362.50;;;-3.46;97.36
5522;BME280;2783;48.730;8.006;2022-12-18T02:47:48;101363.59;;;-3.41;97.74
5522;BME280;2783;48.730;8.006;2022-12-18T02:50:43;101364.56;;;-3.39;97.31
5522;BME280;2783;48.730;8.006;2022-12-18T03:01:19;101382.38;;;-3.48;97.38
5522;BME280;2783;48.730;8.006;2022-12-18T03:06:28;101351.72;;;-3.55;96.78
5522;BME280;2783;48.730;8.006;2022-12-18T03:09:02;101380.81;;;-3.44;96.94
5522;BME280;2783;48.730;8.006;2022-12-18T03:11:32;101387.97;;;-3.58;95.25
5522;BME280;2783;48.730;8.006;2022-12-18T03:14:20;101379.22;;;-3.60;95.04
5522;BME280;2783;48.730;8.006;2022-12-18T03:16:49;101373.56;;;-3.69;96.64
5522;BME280;2783;48.730;8.006;2022-12-18T03:19:18;101378.63;;;-3.72;96.84
5522;BME280;2783;48.730;8.006;2022-12-18T03:21:47;101377.97;;;-3.68;95.66
5522;BME280;2783;48.730;8.006;2022-12-18T03:24:15;101374.16;;;-3.76;95.74
5522;BME280;2783;48.730;8.006;2022-12-18T03:26:44;101381.25;;;-3.72;96.26
5522;BME280;2783;48.730;8.006;2022-12-18T03:32:07;101382.66;;;-3.61;95.75
5522;BME280;2783;48.730;8.006;2022-12-18T03:34:38;101379.22;;;-3.60;97.12
5522;BME280;2783;48.730;8.006;2022-12-18T03:37:05;101378.59;;;-3.54;96.71
5522;BME280;2783;48.730;8.006;2022-12-18T03:39:31;101389.06;;;-3.53;97.61
5522;BME280;2783;48.730;8.006;2022-12-18T03:42:05;101346.00;;;-3.65;96.69
5522;BME280;2783;48.730;8.006;2022-12-18T03:47:27;101391.09;;;-3.46;96.37
5522;BME280;2783;48.730;8.006;2022-12-18T03:50:03;101386.94;;;-3.61;96.48
5522;BME280;2783;48.730;8.006;2022-12-18T03:52:38;101384.47;;;-3.58;96.69
5522;BME280;2783;48.730;8.006;2022-12-18T03:55:08;101379.94;;;-3.62;96.54
5522;BME280;2783;48.730;8.006;2022-12-18T03:57:35;101375.97;;;-3.73;96.65
5522;BME280;2783;48.730;8.006;2022-12-18T04:00:06;101383.50;;;-3.60;96.54
5522;BME280;2783;48.730;8.006;2022-12-18T04:02:34;101360.78;;;-3.83;96.53
5522;BME280;2783;48.730;8.006;2022-12-18T04:05:04;101374.28;;;-3.73;96.61
5522;BME280;2783;48.730;8.006;2022-12-18T04:07:32;101364.97;;;-3.68;96.46
5522;BME280;2783;48.730;8.006;2022-12-18T04:09:59;101370.91;;;-3.70;95.65
5522;BME280;2783;48.730;8.006;2022-12-18T04:12:27;101367.38;;;-3.72;95.66
5522;BME280;2783;48.730;8.006;2022-12-18T04:14:53;101366.03;;;-3.82;96.33
5522;BME280;2783;48.730;8.006;2022-12-18T04:17:19;101356.47;;;-3.83;95.66
5522;BME280;2783;48.730;8.006;2022-12-18T04:19:45;101345.00;;;-3.88;96.07
5522;BME280;2783;48.730;8.006;2022-12-18T04:22:10;101354.47;;;-3.88;96.50
5522;BME280;2783;48.730;8.006;2022-12-18T04:24:36;101343.22;;;-3.89;96.79
5522;BME280;2783;48.730;8.006;2022-12-18T04:27:01;101340.81;;;-3.84;96.94
5522;BME280;2783;48.730;8.006;2022-12-18T04:29:27;101358.75;;;-3.71;96.68
5522;BME280;2783;48.730;8.006;2022-12-18T04:31:53;101353.63;;;-3.70;96.69
5522;BME280;2783;48.730;8.006;2022-12-18T04:34:19;101349.09;;;-3.74;96.74
5522;BME280;2783;48.730;8.006;2022-12-18T04:36:45;101362.38;;;-3.68;97.66
5522;BME280;2783;48.730;8.006;2022-12-18T04:39:10;101367.50;;;-3.69;97.70
5522;BME280;2783;48.730;8.006;2022-12-18T04:41:35;101364.28;;;-3.64;97.13
5522;BME280;2783;48.730;8.006;2022-12-18T04:44:01;101365.19;;;-3.63;97.85
5522;BME280;2783;48.730;8.006;2022-12-18T04:46:26;101365.69;;;-3.53;98.23
5522;BME280;2783;48.730;8.006;2022-12-18T04:48:52;101358.53;;;-3.57;98.10
5522;BME280;2783;48.730;8.006;2022-12-18T04:51:17;101373.09;;;-3.60;98.29
5522;BME280;2783;48.730;8.006;2022-12-18T04:53:43;101369.66;;;-3.61;98.15
5522;BME280;2783;48.730;8.006;2022-12-18T04:56:10;101369.66;;;-3.61;97.62
5522;BME280;2783;48.730;8.006;2022-12-18T04:58:37;101374.91;;;-3.59;97.74
5522;BME280;2783;48.730;8.006;2022-12-18T05:01:04;101387.06;;;-3.58;97.72
5522;BME280;2783;48.730;8.006;2022-12-18T05:03:30;101390.44;;;-3.61;98.28
5522;BME280;2783;48.730;8.006;2022-12-18T05:05:56;101379.06;;;-3.63;97.28
5522;BME280;2783;48.730;8.006;2022-12-18T05:08:22;101374.28;;;-3.54;98.67
5522;BME280;2783;48.730;8.006;2022-12-18T05:10:47;101359.91;;;-3.65;98.04
5522;BME280;2783;48.730;8.006;2022-12-18T05:13:12;101368.94;;;-3.57;97.52
5522;BME280;2783;48.730;8.006;2022-12-18T05:15:38;101376.13;;;-3.51;97.99
5522;BME280;2783;48.730;8.006;2022-12-18T05:18:04;101366.78;;;-3.48;96.94
5522;BME280;2783;48.730;8.006;2022-12-18T05:20:29;101376.06;;;-3.53;97.96
5522;BME280;2783;48.730;8.006;2022-12-18T05:22:55;101360.47;;;-3.53;97.71
5522;BME280;2783;48.730;8.006;2022-12-18T05:25:21;101368.47;;;-3.48;98.24
5522;BME280;2783;48.730;8.006;2022-12-18T05:27:47;101348.63;;;-3.65;98.15
5522;BME280;2783;48.730;8.006;2022-12-18T05:30:13;101374.91;;;-3.59;98.16
5522;BME280;2783;48.730;8.006;2022-12-18T05:32:39;101376.59;;;-3.60;97.51
5522;BME280;2783;48.730;8.006;2022-12-18T05:35:06;101374.97;;;-3.58;97.60
5522;BME280;2783;48.730;8.006;2022-12-18T05:37:32;101379.06;;;-3.63;97.96
5522;BME280;2783;48.730;8.006;2022-12-18T05:39:58;101380.97;;;-3.59;98.20
5522;BME280;2783;48.730;8.006;2022-12-18T05:42:23;101382.66;;;-3.61;97.99
5522;BME280;2783;48.730;8.006;2022-12-18T05:44:49;101357.97;;;-3.69;97.10
5522;BME280;2783;48.730;8.006;2022-12-18T05:47:14;101375.72;;;-3.60;97.65
5522;BME280;2783;48.730;8.006;2022-12-18T05:49:39;101363.19;;;-3.69;97.45
5522;BME280;2783;48.730;8.006;2022-12-18T05:52:05;101373.88;;;-3.63;97.29
5522;BME280;2783;48.730;8.006;2022-12-18T05:54:30;101381.81;;;-3.60;96.71
5522;BME280;2783;48.730;8.006;2022-12-18T05:56:56;101371.34;;;-3.61;97.00
5522;BME280;2783;48.730;8.006;2022-12-18T05:59:22;101387.41;;;-3.51;97.16
5522;BME280;2783;48.730;8.006;2022-12-18T06:01:47;101357.38;;;-3.63;97.60
5522;BME280;2783;48.730;8.006;2022-12-18T06:04:13;101397.75;;;-3.52;97.49
5522;BME280;2783;48.730;8.006;2022-12-18T06:06:38;101413.34;;;-3.52;96.94
5522;BME280;2783;48.730;8.006;2022-12-18T06:09:04;101415.88;;;-3.54;97.02
5522;BME280;2783;48.730;8.006;2022-12-18T06:11:35;101417.69;;;-3.53;97.22
5522;BME280;2783;48.730;8.006;2022-12-18T06:14:01;101421.97;;;-3.53;96.99
5522;BME280;2783;48.730;8.006;2022-12-18T06:16:27;101414.94;;;-3.56;96.59
5522;BME280;2783;48.730;8.006;2022-12-18T06:18:56;101404.78;;;-3.69;96.26
5522;BME280;2783;48.730;8.006;2022-12-18T06:21:21;101430.53;;;-3.56;96.43
5522;BME280;2783;48.730;8.006;2022-12-18T06:23:47;101431.63;;;-3.51;96.94
5522;BME280;2783;48.730;8.006;2022-12-18T06:26:13;101427.38;;;-3.49;97.45
5522;BME280;2783;48.730;8.006;2022-12-18T06:28:39;101423.97;;;-3.48;97.79
5522;BME280;2783;48.730;8.006;2022-12-18T06:31:05;101440.50;;;-3.46;97.70
5522;BME280;2783;48.730;8.006;2022-12-18T06:33:31;101428.88;;;-3.54;96.73
5522;BME280;2783;48.730;8.006;2022-12-18T06:36:02;101446.69;;;-3.44;96.20
5522;BME280;2783;48.730;8.006;2022-12-18T06:38:28;101438.75;;;-3.47;97.44
5522;BME280;2783;48.730;8.006;2022-12-18T06:40:53;101421.84;;;-3.56;96.74
5522;BME280;2783;48.730;8.006;2022-12-18T06:43:19;101425.75;;;-3.47;96.80
5522;BME280;2783;48.730;8.006;2022-12-18T06:45:44;101436.34;;;-3.42;95.37
5522;BME280;2783;48.730;8.006;2022-12-18T06:48:11;101439.00;;;-3.41;95.56
5522;BME280;2783;48.730;8.006;2022-12-18T06:50:36;101452.84;;;-3.42;95.30
5522;BME280;2783;48.730;8.006;2022-12-18T06:53:02;101442.84;;;-3.52;96.39
5522;BME280;2783;48.730;8.006;2022-12-18T06:55:27;101438.75;;;-3.47;96.14
5522;BME280;2783;48.730;8.006;2022-12-18T06:57:53;101400.00;;;-3.60;95.88
5522;BME280;2783;48.730;8.006;2022-12-18T07:00:18;101435.75;;;-3.37;97.03
5522;BME280;2783;48.730;8.006;2022-12-18T07:02:44;101433.75;;;-3.42;95.99
5522;BME280;2783;48.730;8.006;2022-12-18T07:05:09;101443.28;;;-3.43;96.17
5522;BME280;2783;48.730;8.006;2022-12-18T07:07:34;101424.75;;;-3.68;96.03
5522;BME280;2783;48.730;8.006;2022-12-18T07:10:00;101436.41;;;-3.60;96.58
5522;BME280;2783;48.730;8.006;2022-12-18T07:12:28;101440.94;;;-3.56;97.45
5522;BME280;2783;48.730;8.006;2022-12-18T07:14:54;101437.72;;;-3.50;98.01
5522;BME280;2783;48.730;8.006;2022-12-18T07:17:19;101440.25;;;-3.52;98.09
5522;BME280;2783;48.730;8.006;2022-12-18T07:19:45;101435.94;;;-3.51;98.30
5522;BME280;2783;48.730;8.006;2022-12-18T07:22:10;101420.69;;;-3.63;97.79
5522;BME280;2783;48.730;8.006;2022-12-18T07:24:36;101435.97;;;-3.69;97.86
5522;BME280;2783;48.730;8.006;2022-12-18T07:27:01;101446.94;;;-3.57;97.54
5522;BME280;2783;48.730;8.006;2022-12-18T07:29:27;101448.75;;;-3.56;97.03
5522;BME280;2783;48.730;8.006;2022-12-18T07:31:52;101451.25;;;-3.57;98.77
5522;BME280;2783;48.730;8.006;2022-12-18T07:34:17;101420.31;;;-3.70;97.33
5522;BME280;2783;48.730;8.006;2022-12-18T07:36:43;101444.53;;;-3.52;97.22
5522;BME280;2783;48.730;8.006;2022-12-18T07:39:10;101438.94;;;-3.61;98.45
5522;BME280;2783;48.730;8.006;2022-12-18T07:41:36;101454.22;;;-3.50;99.03
5522;BME280;2783;48.730;8.006;2022-12-18T07:44:01;101470.53;;;-3.35;97.99
5522;BME280;2783;48.730;8.006;2022-12-18T07:46:27;101474.22;;;-3.30;97.49
5522;BME280;2783;48.730;8.006;2022-12-18T07:48:52;101451.22;;;-3.40;98.05
5522;BME280;2783;48.730;8.006;2022-12-18T07:51:18;101465.59;;;-3.29;97.99
5522;BME280;2783;48.730;8.006;2022-12-18T07:53:43;101457.91;;;-3.26;98.00
5522;BME280;2783;48.730;8.006;2022-12-18T07:56:10;101474.50;;;-3.24;98.62
5522;BME280;2783;48.730;8.006;2022-12-18T07:58:37;101478.47;;;-3.32;98.29
5522;BME280;2783;48.730;8.006;2022-12-18T08:01:07;101474.22;;;-3.30;97.06
5522;BME280;2783;48.730;8.006;2022-12-18T08:03:33;101474.16;;;-3.31;97.88
5522;BME280;2783;48.730;8.006;2022-12-18T08:06:04;101470.78;;;-3.29;97.78
5522;BME280;2783;48.730;8.006;2022-12-18T08:08:30;101481.75;;;-3.17;98.47
5522;BME280;2783;48.730;8.006;2022-12-18T08:10:56;101483.41;;;-3.19;98.00
5522;BME280;2783;48.730;8.006;2022-12-18T08:13:21;101481.06;;;-3.13;97.86
5522;BME280;2783;48.730;8.006;2022-12-18T08:15:57;101473.13;;;-3.16;98.32
5522;BME280;2783;48.730;8.006;2022-12-18T08:18:23;101476.81;;;-3.11;98.66
5522;BME280;2783;48.730;8.006;2022-12-18T08:20:49;101457.78;;;-3.29;97.69
5522;BME280;2783;48.730;8.006;2022-12-18T08:23:14;101476.63;;;-3.15;97.77
5522;BME280;2783;48.730;8.006;2022-12-18T08:25:40;101451.91;;;-3.25;98.34
5522;BME280;2783;48.730;8.006;2022-12-18T08:28:05;101468.56;;;-3.21;97.78
5522;BME280;2783;48.730;8.006;2022-12-18T08:30:30;101461.78;;;-2.99;98.97
5522;BME280;2783;48.730;8.006;2022-12-18T08:32:56;101464.59;;;-3.13;98.15
5522;BME280;2783;48.730;8.006;2022-12-18T08:35:21;101464.22;;;-3.21;97.44
5522;BME280;2783;48.730;8.006;2022-12-18T08:37:46;101460.38;;;-3.10;97.97
5522;BME280;2783;48.730;8.006;2022-12-18T08:40:11;101443.63;;;-2.97;98.46
5522;BME280;2783;48.730;8.006;2022-12-18T08:42:37;101440.78;;;-2.83;97.55
5522;BME280;2783;48.730;8.006;2022-12-18T08:45:21;101445.44;;;-2.76;98.41
5522;BME280;2783;48.730;8.006;2022-12-18T08:47:47;101442.00;;;-2.75;97.30
5522;BME280;2783;48.730;8.006;2022-12-18T08:50:12;101448.59;;;-2.83;97.00
5522;BME280;2783;48.730;8.006;2022-12-18T08:52:37;101448.53;;;-2.84;96.97
5522;BME280;2783;48.730;8.006;2022-12-18T08:55:03;101446.31;;;-2.75;96.39
5522;BME280;2783;48.730;8.006;2022-12-18T08:57:28;101442.28;;;-2.68;96.64
5522;BME280;2783;48.730;8.006;2022-12-18T08:59:53;101435.03;;;-2.76;96.42
5522;BME280;2783;48.730;8.006;2022-12-18T09:02:19;101427.41;;;-2.71;95.68
5522;BME280;2783;48.730;8.006;2022-12-18T09:04:46;101431.16;;;-2.64;96.40
5522;BME280;2783;48.730;8.006;2022-12-18T09:07:12;101432.84;;;-2.65;96.00
5522;BME280;2783;48.730;8.006;2022-12-18T09:09:37;101447.13;;;-2.57;96.47
5522;BME280;2783;48.730;8.006;2022-12-18T09:12:03;101445.06;;;-2.64;94.66
5522;BME280;2783;48.730;8.006;2022-12-18T09:14:28;101456.75;;;-2.54;95.44
5522;BME280;2783;48.730;8.006;2022-12-18T09:16:53;101458.47;;;-2.55;94.59
5522;BME280;2783;48.730;8.006;2022-12-18T09:19:18;101464.13;;;-2.44;95.37
5522;BME280;2783;48.730;8.006;2022-12-18T09:21:44;101464.63;;;-2.53;95.00
5522;BME280;2783;48.730;8.006;2022-12-18T09:24:11;101464.09;;;-2.46;94.11
5522;BME280;2783;48.730;8.006;2022-12-18T09:26:37;101465.47;;;-2.54;94.15
5522;BME280;2783;48.730;8.006;2022-12-18T09:29:02;101464.88;;;-2.47;94.26
5522;BME280;2783;48.730;8.006;2022-12-18T09:31:27;101477.19;;;-2.63;93.81
5522;BME280;2783;48.730;8.006;2022-12-18T09:33:54;101472.94;;;-2.61;94.11
5522;BME280;2783;48.730;8.006;2022-12-18T09:36:19;101473.72;;;-2.43;94.49
5522;BME280;2783;48.730;8.006;2022-12-18T09:38:45;101480.97;;;-2.36;93.55
5522;BME280;2783;48.730;8.006;2022-12-18T09:43:55;101488.34;;;-2.26;93.87
5522;BME280;2783;48.730;8.006;2022-12-18T09:46:23;101493.56;;;-2.26;93.44
5522;BME280;2783;48.730;8.006;2022-12-18T09:48:52;101495.28;;;-2.27;93.34
5522;BME280;2783;48.730;8.006;2022-12-18T09:51:21;101494.91;;;-2.15;93.10
5522;BME280;2783;48.730;8.006;2022-12-18T09:53:50;101503.03;;;-2.28;93.06
5522;BME280;2783;48.730;8.006;2022-12-18T09:56:17;101503.16;;;-2.25;91.99
5522;BME280;2783;48.730;8.006;2022-12-18T09:58:49;101500.09;;;-2.15;92.65
5522;BME280;2783;48.730;8.006;2022-12-18T10:01:19;101495.28;;;-2.06;92.56
5522;BME280;2783;48.730;8.006;2022-12-18T10:03:46;101500.38;;;-2.09;91.80
5522;BME280;2783;48.730;8.006;2022-12-18T10:08:51;101482.25;;;-2.27;91.81
5522;BME280;2783;48.730;8.006;2022-12-18T10:16:56;101486.00;;;-2.20;90.62
5522;BME280;2783;48.730;8.006;2022-12-18T10:19:35;101478.41;;;-2.16;91.63
5522;BME280;2783;48.730;8.006;2022-12-18T10:24:36;101485.19;;;-2.19;90.57
5522;BME280;2783;48.730;8.006;2022-12-18T10:27:17;101473.31;;;-2.13;90.66
5522;BME280;2783;48.730;8.006;2022-12-18T10:29:42;101474.69;;;-2.00;91.63
5522;BME280;2783;48.730;8.006;2022-12-18T10:32:13;101475.06;;;-1.91;90.96
5522;BME280;2783;48.730;8.006;2022-12-18T10:34:39;101480.91;;;-2.38;89.28
5522;BME280;2783;48.730;8.006;2022-12-18T10:37:05;101472.66;;;-2.28;90.62
5522;BME280;2783;48.730;8.006;2022-12-18T10:39:31;101464.47;;;-2.16;91.09
5522;BME280;2783;48.730;8.006;2022-12-18T10:42:09;101460.50;;;-2.07;90.57
5522;BME280;2783;48.730;8.006;2022-12-18T10:44:35;101456.81;;;-1.91;91.10
5522;BME280;2783;48.730;8.006;2022-12-18T10:47:05;101456.59;;;-1.75;90.89
5522;BME280;2783;48.730;8.006;2022-12-18T10:49:32;101462.81;;;-1.72;90.58
5522;BME280;2783;48.730;8.006;2022-12-18T10:55:03;101455.28;;;-1.64;89.50
5522;BME280;2783;48.730;8.006;2022-12-18T10:59:55;101467.97;;;-1.51;89.27
5522;BME280;2783;48.730;8.006;2022-12-18T11:02:28;101462.00;;;-1.49;88.69
5522;BME280;2783;48.730;8.006;2022-12-18T11:04:58;101455.97;;;-1.46;87.09
5522;BME280;2783;48.730;8.006;2022-12-18T11:07:23;101452.84;;;-1.60;86.37
5522;BME280;2783;48.730;8.006;2022-12-18T11:09:59;101452.00;;;-1.81;86.07
5522;BME280;2783;48.730;8.006;2022-12-18T11:12:33;101454.78;;;-1.76;86.44
5522;BME280;2783;48.730;8.006;2022-12-18T11:14:59;101453.13;;;-1.74;87.67
5522;BME280;2783;48.730;8.006;2022-12-18T11:17:29;101444.19;;;-1.81;87.03
5522;BME280;2783;48.730;8.006;2022-12-18T11:19:56;101448.03;;;-1.71;87.46
5522;BME280;2783;48.730;8.006;2022-12-18T11:27:31;101451.72;;;-1.66;88.09
5522;BME280;2783;48.730;8.006;2022-12-18T11:30:20;101445.44;;;-1.49;88.98
5522;BME280;2783;48.730;8.006;2022-12-18T11:32:49;101439.75;;;-1.39;88.91
5522;BME280;2783;48.730;8.006;2022-12-18T11:35:19;101447.16;;;-1.50;88.47
5522;BME280;2783;48.730;8.006;2022-12-18T11:37:50;101441.28;;;-1.22;88.41
5522;BME280;2783;48.730;8.006;2022-12-18T11:40:19;101432.44;;;-1.25;87.52
5522;BME280;2783;48.730;8.006;2022-12-18T11:50:03;101420.81;;;-0.86;85.46
5522;BME280;2783;48.730;8.006;2022-12-18T11:52:37;101419.31;;;-0.80;85.74
5522;BME280;2783;48.730;8.006;2022-12-18T11:55:18;101413.63;;;-0.92;84.97
5522;BME280;2783;48.730;8.006;2022-12-18T12:00:21;101406.34;;;-0.77;85.88
5522;BME280;2783;48.730;8.006;2022-12-18T12:17:54;101393.66;;;-0.66;83.25
5522;BME280;2783;48.730;8.006;2022-12-18T12:25:46;101391.16;;;-0.63;83.05
5522;BME280;2783;48.730;8.006;2022-12-18T12:28:32;101403.38;;;-0.62;82.83
5522;BME280;2783;48.730;8.006;2022-12-18T12:40:48;101399.97;;;-0.35;82.52
5522;BME280;2783;48.730;8.006;2022-12-18T12:48:20;101403.06;;;-0.20;81.95
5522;BME280;2783;48.730;8.006;2022-12-18T12:50:48;101392.72;;;-0.17;81.24
5522;BME280;2783;48.730;8.006;2022-12-18T12:53:19;101393.91;;;-0.07;80.99
5522;BME280;2783;48.730;8.006;2022-12-18T12:55:46;101386.09;;;-0.06;80.84
5522;BME280;2783;48.730;8.006;2022-12-18T12:58:16;101383.41;;;-0.09;81.14
5522;BME280;2783;48.730;8.006;2022-12-18T13:06:33;101377.69;;;-0.49;81.07
5522;BME280;2783;48.730;8.006;2022-12-18T13:09:01;101375.72;;;-0.56;81.94
5522;BME280;2783;48.730;8.006;2022-12-18T13:11:31;101378.75;;;-0.69;83.48
5522;BME280;2783;48.730;8.006;2022-12-18T13:14:26;101373.63;;;-0.66;83.68
5522;BME280;2783;48.730;8.006;2022-12-18T13:17:13;101361.13;;;-0.76;83.51
5522;BME280;2783;48.730;8.006;2022-12-18T13:19:38;101355.66;;;-0.82;83.36
5522;BME280;2783;48.730;8.006;2022-12-18T13:22:03;101357.00;;;-0.69;83.67
5522;BME280;2783;48.730;8.006;2022-12-18T13:24:30;101360.47;;;-0.69;84.21
5522;BME280;2783;48.730;8.006;2022-12-18T13:26:55;101350.91;;;-0.68;84.28
5522;BME280;2783;48.730;8.006;2022-12-18T13:32:10;101337.63;;;-0.76;84.53
5522;BME280;2783;48.730;8.006;2022-12-18T13:34:43;101342.09;;;-0.72;84.94
5522;BME280;2783;48.730;8.006;2022-12-18T13:39:53;101342.13;;;-0.70;84.91
5522;BME280;2783;48.730;8.006;2022-12-18T13:45:07;101345.22;;;-0.82;86.31
5522;BME280;2783;48.730;8.006;2022-12-18T13:47:47;101338.25;;;-0.83;85.82
5522;BME280;2783;48.730;8.006;2022-12-18T13:50:20;101331.44;;;-0.78;85.32
5522;BME280;2783;48.730;8.006;2022-12-18T13:52:47;101328.50;;;-0.87;86.29
5522;BME280;2783;48.730;8.006;2022-12-18T13:55:16;101330.31;;;-0.86;85.84
5522;BME280;2783;48.730;8.006;2022-12-18T13:57:42;101331.69;;;-0.95;86.51
5522;BME280;2783;48.730;8.006;2022-12-18T14:00:41;101326.28;;;-1.01;86.23
5522;BME280;2783;48.730;8.006;2022-12-18T14:02:59;101332.69;;;-0.92;86.86
5522;BME280;2783;48.730;8.006;2022-12-18T14:05:29;101330.19;;;-1.14;86.50
5522;BME280;2783;48.730;8.006;2022-12-18T14:07:55;101333.63;;;-1.15;87.08
5522;BME280;2783;48.730;8.006;2022-12-18T14:10:25;101332.09;;;-1.08;87.42
5522;BME280;2783;48.730;8.006;2022-12-18T14:12:51;101335.00;;;-1.01;87.83
5522;BME280;2783;48.730;8.006;2022-12-18T14:17:55;101346.16;;;-1.05;87.48
5522;BME280;2783;48.730;8.006;2022-12-18T14:20:21;101348.81;;;-1.03;87.54
5522;BME280;2783;48.730;8.006;2022-12-18T14:22:48;101347.81;;;-1.07;87.84
5522;BME280;2783;48.730;8.006;2022-12-18T14:25:29;101347.63;;;-1.13;87.90
5522;BME280;2783;48.730;8.006;2022-12-18T14:30:36;101338.47;;;-1.25;88.64
5522;BME280;2783;48.730;8.006;2022-12-18T14:33:03;101335.28;;;-1.17;89.22
5522;BME280;2783;48.730;8.006;2022-12-18T14:35:29;101342.81;;;-1.26;88.93
5522;BME280;2783;48.730;8.006;2022-12-18T14:38:08;101345.19;;;-1.32;89.58
5522;BME280;2783;48.730;8.006;2022-12-18T14:40:34;101337.03;;;-1.41;89.56
5522;BME280;2783;48.730;8.006;2022-12-18T14:42:59;101340.25;;;-1.48;90.17
5522;BME280;2783;48.730;8.006;2022-12-18T14:45:37;101342.53;;;-1.57;90.65
5522;BME280;2783;48.730;8.006;2022-12-18T14:48:08;101336.84;;;-1.69;91.62
5522;BME280;2783;48.730;8.006;2022-12-18T14:50:33;101342.16;;;-1.66;90.65
5522;BME280;2783;48.730;8.006;2022-12-18T14:52:59;101339.28;;;-1.74;91.20
5522;BME280;2783;48.730;8.006;2022-12-18T14:55:24;101343.63;;;-1.74;91.23
5522;BME280;2783;48.730;8.006;2022-12-18T14:57:50;101341.78;;;-1.77;91.06
5522;BME280;2783;48.730;8.006;2022-12-18T15:00:18;101344.19;;;-1.81;91.74
5522;BME280;2783;48.730;8.006;2022-12-18T15:02:44;101342.28;;;-1.87;92.26
5522;BME280;2783;48.730;8.006;2022-12-18T15:07:43;101343.44;;;-2.01;91.99
5522;BME280;2783;48.730;8.006;2022-12-18T15:12:41;101348.97;;;-2.15;92.52
5522;BME280;2783;48.730;8.006;2022-12-18T15:17:56;101340.69;;;-2.05;93.31
5522;BME280;2783;48.730;8.006;2022-12-18T15:20:21;101346.84;;;-2.03;93.49
5522;BME280;2783;48.730;8.006;2022-12-18T15:22:49;101345.25;;;-2.00;93.45
5522;BME280;2783;48.730;8.006;2022-12-18T15:25:26;101346.06;;;-2.01;93.11
5522;BME280;2783;48.730;8.006;2022-12-18T15:27:53;101349.34;;;-2.06;93.80